| Date | Time | Temp. (oF) | Dew Point (oF) | Rel. Hum. (%) | Press. (in.) | Wind Dir. | Wind Speed (mph) | Hourly Rainfall (in.) |
|
|---|---|---|---|---|---|---|---|---|---|
| 1 | 01/02 | 00:00 | 29 | 25 | 86 | 30.39 | WNW | 0 | 0.00 |
| 2 | 01/01 | 23:00 | 30 | 25 | 84 | 30.40 | WNW | 0 | 0.00 |
| 3 | 01/01 | 22:00 | 30 | 24 | 80 | 30.39 | WNW | 0 | 0.00 |
| 4 | 01/01 | 21:00 | 33 | 24 | 72 | 30.39 | WNW | 0 | 0.00 |
| 5 | 01/01 | 20:00 | 34 | 25 | 70 | 30.36 | WNW | 2 | 0.00 |
| 6 | 01/01 | 19:00 | 36 | 24 | 62 | 30.35 | WNW | 0 | 0.00 |
| 7 | 01/01 | 18:00 | 40 | 24 | 54 | 30.30 | WNW | 0 | 0.00 |
| 8 | 01/01 | 17:00 | 45 | 24 | 45 | 30.28 | WNW | 1 | 0.00 |
| 9 | 01/01 | 16:00 | 48 | 26 | 43 | 30.26 | WNW | 5 | 0.00 |
| 10 | 01/01 | 15:00 | 50 | 27 | 42 | 30.22 | WNW | 5 | 0.00 |
| 11 | 01/01 | 14:00 | 49 | 29 | 46 | 30.21 | WNW | 3 | 0.00 |
| 12 | 01/01 | 13:00 | 49 | 30 | 48 | 30.20 | WNW | 8 | 0.00 |
| 13 | 01/01 | 12:00 | 47 | 30 | 52 | 30.21 | WNW | 13 | 0.00 |
| 14 | 01/01 | 11:00 | 44 | 30 | 59 | 30.22 | WNW | 11 | 0.00 |
| 15 | 01/01 | 10:00 | 43 | 30 | 60 | 30.20 | WNW | 6 | 0.00 |
| 16 | 01/01 | 09:00 | 38 | 28 | 69 | 30.16 | WNW | 3 | 0.00 |
| 17 | 01/01 | 08:00 | 34 | 26 | 73 | 30.12 | WNW | 0 | 0.00 |
| 18 | 01/01 | 07:00 | 36 | 26 | 67 | 30.09 | WNW | 1 | 0.00 |
| 19 | 01/01 | 06:00 | 37 | 25 | 63 | 30.05 | WNW | 2 | 0.00 |
| 20 | 01/01 | 05:00 | 41 | 25 | 54 | 30.02 | WNW | 3 | 0.00 |
| 21 | 01/01 | 04:00 | 43 | 25 | 49 | 29.99 | WNW | 5 | 0.00 |
| 22 | 01/01 | 03:00 | 43 | 24 | 47 | 29.98 | WNW | 5 | 0.00 |
| 23 | 01/01 | 02:00 | 44 | 23 | 45 | 29.94 | WNW | 7 | 0.00 |
| 24 | 01/01 | 01:00 | 44 | 23 | 44 | 29.93 | WNW | 12 | 0.00 |